Time;durP1;ratioP1;P1;durP2;ratioP2;P2;SDS_P1;SDS_P2;PMS_P1;PMS_P2;Temp;Humidity;BMP_temperature;BMP_pressure;BME280_temperature;BME280_humidity;BME280_pressure;Samples;Min_cycle;Max_cycle;Signal;HPM_P1;HPM_P2
2023/02/01 04:09:45;;;;;;;23.58;4.10;;;;;;;4.37;88.94;100445.41;4920920;29;20261;-79
2023/02/01 04:12:14;;;;;;;21.23;3.33;;;;;;;4.36;88.92;100451.78;4941368;29;20204;-79
2023/02/01 04:14:44;;;;;;;7.75;2.70;;;;;;;4.41;88.56;100451.25;4955994;28;20713;-79
2023/02/01 04:17:13;;;;;;;14.65;6.10;;;;;;;4.47;87.84;100453.25;4939588;29;20196;-79
2023/02/01 04:19:44;;;;;;;18.88;2.85;;;;;;;4.55;87.60;100447.03;4968525;28;20700;-78
2023/02/01 04:22:13;;;;;;;18.42;4.18;;;;;;;4.56;87.74;100459.41;5017984;28;20200;-78
2023/02/01 04:24:46;;;;;;;15.00;5.20;;;;;;;4.61;86.78;100457.88;5036238;28;20214;-80
2023/02/01 04:27:15;;;;;;;24.65;3.75;;;;;;;4.64;88.19;100446.81;5032938;28;20197;-79
2023/02/01 04:29:46;;;;;;;9.05;3.70;;;;;;;4.63;87.11;100437.09;5017848;28;20224;-80
2023/02/01 04:32:15;;;;;;;17.00;3.70;;;;;;;4.67;87.32;100441.09;5019450;28;20673;-78
2023/02/01 04:34:45;;;;;;;20.30;3.53;;;;;;;4.72;87.06;100443.25;5039810;28;20225;-80
2023/02/01 04:37:15;;;;;;;19.15;4.35;;;;;;;4.77;86.77;100443.56;5039237;28;20190;-77
2023/02/01 04:39:47;;;;;;;15.07;4.57;;;;;;;4.80;86.46;100436.00;5042549;28;20575;-78
2023/02/01 04:42:16;;;;;;;15.73;2.80;;;;;;;4.81;86.08;100437.69;5046618;28;20212;-79
2023/02/01 04:44:46;;;;;;;19.13;3.70;;;;;;;4.82;85.95;100439.34;5030375;28;20718;-79
2023/02/01 04:47:16;;;;;;;17.13;4.82;;;;;;;4.84;86.73;100446.38;5030041;28;20271;-79
2023/02/01 04:49:46;;;;;;;19.10;4.15;;;;;;;4.91;85.67;100440.13;5024612;28;20300;-78
2023/02/01 04:52:15;;;;;;;18.90;3.95;;;;;;;4.98;85.78;100437.59;5041436;28;20170;-78
2023/02/01 04:54:46;;;;;;;20.08;4.13;;;;;;;4.98;85.52;100432.22;5045105;28;20216;-77
2023/02/01 04:57:16;;;;;;;27.05;5.30;;;;;;;5.03;86.18;100425.31;5053116;28;20166;-78
2023/02/01 04:59:46;;;;;;;15.70;2.72;;;;;;;5.00;85.20;100428.34;5052697;28;20197;-78
2023/02/01 05:02:16;;;;;;;10.70;3.30;;;;;;;5.05;85.71;100422.44;5052968;28;20173;-77
2023/02/01 05:04:48;;;;;;;24.20;4.05;;;;;;;5.08;84.72;100422.09;5056387;28;20205;-79
2023/02/01 05:07:18;;;;;;;20.05;4.45;;;;;;;5.13;84.97;100425.09;5052257;28;20204;-78
2023/02/01 05:09:49;;;;;;;15.60;4.53;;;;;;;5.08;84.42;100414.88;5033730;28;20209;-78
2023/02/01 05:15:09;;;;;;;14.73;4.10;;;;;;;5.11;83.90;100411.00;5053644;28;20201;-77
2023/02/01 05:17:40;;;;;;;17.10;4.68;;;;;;;5.16;83.99;100405.94;5055102;28;20193;-78
2023/02/01 05:20:11;;;;;;;20.00;4.43;;;;;;;5.18;83.56;100401.25;5048908;28;20250;-78
2023/02/01 05:22:44;;;;;;;18.92;5.15;;;;;;;5.21;83.54;100400.88;5037814;28;20225;-79
2023/02/01 05:25:15;;;;;;;15.48;4.35;;;;;;;5.21;83.32;100404.41;5034723;28;20212;-79
2023/02/01 05:27:45;;;;;;;15.90;4.70;;;;;;;5.21;83.73;100399.03;5037526;28;20210;-78
2023/02/01 05:30:15;;;;;;;13.68;3.72;;;;;;;5.28;83.06;100398.31;5037885;28;20166;-78
2023/02/01 05:32:44;;;;;;;15.00;3.63;;;;;;;5.22;83.62;100394.50;5037491;28;20167;-79
2023/02/01 05:35:14;;;;;;;11.25;3.83;;;;;;;5.23;83.29;100393.47;5037543;28;20249;-78
2023/02/01 05:37:44;;;;;;;21.85;3.80;;;;;;;5.26;83.28;100393.13;5037473;28;20170;-77
2023/02/01 05:40:15;;;;;;;15.15;4.00;;;;;;;5.27;83.00;100402.84;5037666;28;20189;-79
2023/02/01 05:42:45;;;;;;;18.27;3.65;;;;;;;5.27;82.16;100394.81;5037645;28;20173;-79
2023/02/01 05:45:16;;;;;;;13.10;4.18;;;;;;;5.34;82.54;100389.53;5037404;28;20190;-79
2023/02/01 05:47:46;;;;;;;10.50;2.95;;;;;;;5.33;82.91;100387.84;5020709;28;20209;-78
2023/02/01 05:50:19;;;;;;;17.35;3.25;;;;;;;5.33;82.58;100393.22;5049453;28;20200;-81
2023/02/01 05:52:58;;;;;;;12.77;3.65;;;;;;;5.32;82.78;100380.84;5042039;28;20220;-79
2023/02/01 05:55:29;;;;;;;13.95;4.80;;;;;;;5.33;83.11;100377.13;5031778;28;20202;-78
2023/02/01 05:57:58;;;;;;;15.98;3.88;;;;;;;5.26;82.75;100377.03;5017158;28;20631;-80
2023/02/01 06:00:28;;;;;;;25.98;5.18;;;;;;;5.26;81.84;100374.34;5019687;28;20201;-79
2023/02/01 06:02:58;;;;;;;13.82;3.90;;;;;;;5.30;83.06;100372.97;5000394;28;20197;-79
2023/02/01 06:05:27;;;;;;;18.13;4.20;;;;;;;5.30;81.92;100361.41;5013653;28;20240;-78
2023/02/01 06:07:58;;;;;;;14.32;4.20;;;;;;;5.31;82.09;100374.66;5039164;28;20189;-79
2023/02/01 06:10:29;;;;;;;11.18;3.28;;;;;;;5.35;82.67;100375.13;5038267;28;20188;-78
2023/02/01 06:12:59;;;;;;;9.57;3.55;;;;;;;5.30;82.15;100369.44;5031649;28;20190;-78
2023/02/01 06:15:28;;;;;;;17.80;3.88;;;;;;;5.29;82.47;100371.28;5000466;28;20499;-78
2023/02/01 06:17:58;;;;;;;10.32;3.25;;;;;;;5.31;83.57;100373.81;5020202;28;20563;-78
2023/02/01 06:20:30;;;;;;;16.08;4.07;;;;;;;5.27;84.45;100369.81;5022058;28;20179;-78
2023/02/01 06:23:00;;;;;;;11.23;3.63;;;;;;;5.19;85.06;100370.72;5026768;28;20221;-78
2023/02/01 06:25:31;;;;;;;21.38;4.25;;;;;;;5.21;85.46;100374.06;5008708;28;20218;-78
2023/02/01 06:28:05;;;;;;;18.73;4.20;;;;;;;5.13;86.89;100372.25;5028905;28;20745;-77
2023/02/01 06:30:35;;;;;;;11.20;3.78;;;;;;;5.08;87.32;100373.84;5031355;28;20209;-79
2023/02/01 06:33:05;;;;;;;17.83;3.55;;;;;;;4.98;88.42;100362.50;5032674;28;20180;-76
2023/02/01 06:35:35;;;;;;;11.32;3.30;;;;;;;5.00;87.59;100355.09;5032909;28;20224;-77
2023/02/01 06:38:04;;;;;;;9.43;3.00;;;;;;;4.99;87.90;100359.63;5019485;28;20712;-79
2023/02/01 06:40:35;;;;;;;15.65;4.15;;;;;;;5.05;88.96;100358.09;5018906;28;20190;-78
2023/02/01 06:43:05;;;;;;;7.47;3.80;;;;;;;4.99;88.73;100354.25;5018408;28;20202;-78
2023/02/01 06:45:34;;;;;;;13.23;3.75;;;;;;;5.02;88.90;100358.44;5019003;28;20205;-78
2023/02/01 06:48:04;;;;;;;9.10;3.25;;;;;;;4.98;88.76;100357.16;5019527;28;20225;-78
2023/02/01 06:50:35;;;;;;;16.63;4.95;;;;;;;5.04;88.45;100346.53;5017723;28;20226;-78
2023/02/01 06:53:04;;;;;;;15.20;4.15;;;;;;;4.94;87.61;100339.75;5023145;28;20185;-77
2023/02/01 06:55:35;;;;;;;11.88;4.47;;;;;;;4.99;87.87;100332.81;5026520;28;20424;-78
2023/02/01 06:58:05;;;;;;;14.88;5.25;;;;;;;4.98;87.47;100336.53;5037533;28;20189;-77
2023/02/01 07:00:34;;;;;;;15.38;4.65;;;;;;;5.01;86.66;100329.97;5044768;28;20190;-78
2023/02/01 07:03:04;;;;;;;11.63;3.35;;;;;;;5.05;85.45;100331.25;5050861;28;20188;-77
2023/02/01 07:05:33;;;;;;;11.60;4.07;;;;;;;5.04;85.38;100334.94;5020755;28;20221;-79
2023/02/01 07:08:02;;;;;;;13.60;3.10;;;;;;;5.08;84.27;100328.25;5020423;28;20214;-78
2023/02/01 07:10:35;;;;;;;20.13;3.70;;;;;;;5.12;84.54;100330.38;5001799;28;20236;-78
2023/02/01 07:13:05;;;;;;;12.45;3.45;;;;;;;5.20;84.77;100332.16;5003832;28;20194;-78
2023/02/01 07:15:34;;;;;;;24.33;5.40;;;;;;;5.14;84.78;100333.69;5019502;28;20205;-78
2023/02/01 07:18:04;;;;;;;16.60;3.78;;;;;;;5.08;85.30;100322.88;5002870;28;20198;-79
2023/02/01 07:20:33;;;;;;;15.35;3.63;;;;;;;4.96;86.40;100322.47;5003301;28;20729;-78
2023/02/01 07:23:03;;;;;;;11.05;4.05;;;;;;;4.92;87.05;100314.97;5021289;28;20182;-78
2023/02/01 07:25:35;;;;;;;18.77;5.38;;;;;;;4.93;87.04;100312.09;5002160;28;20217;-77
2023/02/01 07:28:05;;;;;;;17.13;4.20;;;;;;;4.96;88.18;100310.91;5000461;28;20210;-79
2023/02/01 07:30:36;;;;;;;9.70;4.53;;;;;;;4.92;88.93;100309.59;5017533;28;20194;-78
2023/02/01 07:33:07;;;;;;;16.23;4.07;;;;;;;4.98;89.04;100304.34;5038589;28;20559;-78
2023/02/01 07:35:37;;;;;;;18.48;3.65;;;;;;;5.00;88.28;100310.34;5038739;28;20205;-78
2023/02/01 07:38:07;;;;;;;13.93;5.32;;;;;;;5.14;87.31;100296.16;5038708;28;20189;-79
2023/02/01 07:40:37;;;;;;;13.60;3.95;;;;;;;5.23;87.87;100302.25;5022331;28;20280;-78
2023/02/01 07:43:07;;;;;;;22.13;4.50;;;;;;;5.22;88.52;100301.47;5023139;28;20197;-80
2023/02/01 07:45:37;;;;;;;11.80;2.85;;;;;;;5.08;87.72;100298.75;5020958;28;20240;-78
2023/02/01 07:48:07;;;;;;;10.68;3.83;;;;;;;4.93;88.97;100293.34;5021047;28;20217;-77
2023/02/01 07:50:37;;;;;;;12.73;4.38;;;;;;;4.85;91.21;100295.22;5020194;28;20201;-78
2023/02/01 07:53:06;;;;;;;12.13;4.00;;;;;;;4.74;92.95;100305.34;5053666;28;20191;-77
2023/02/01 07:55:39;;;;;;;20.35;4.55;;;;;;;4.65;94.41;100311.78;5052467;28;20210;-78
2023/02/01 07:58:09;;;;;;;8.57;4.20;;;;;;;4.56;94.85;100307.50;5031123;28;20193;-79
2023/02/01 08:03:25;;;;;;;10.65;2.55;;;;;;;4.33;96.46;100314.69;5039561;28;20173;-80
2023/02/01 08:05:56;;;;;;;8.10;4.15;;;;;;;4.27;97.35;100307.34;5039352;28;20209;-78
2023/02/01 08:08:26;;;;;;;7.93;2.95;;;;;;;4.22;98.34;100301.66;5038071;28;20304;-79
2023/02/01 08:11:01;;;;;;;7.55;3.25;;;;;;;4.07;98.32;100303.41;5037314;28;20197;-79
2023/02/01 08:13:32;;;;;;;11.13;3.60;;;;;;;3.99;98.56;100295.44;5037442;28;20169;-79
2023/02/01 08:16:03;;;;;;;12.63;4.78;;;;;;;3.94;99.60;100299.47;5018170;28;20305;-80
2023/02/01 08:18:38;;;;;;;13.18;5.30;;;;;;;4.07;100.00;100303.41;5016880;28;20178;-77
2023/02/01 08:21:12;;;;;;;8.77;3.40;;;;;;;4.02;100.00;100305.81;5014273;28;20224;-78
2023/02/01 08:23:46;;;;;;;19.77;5.93;;;;;;;4.01;100.00;100306.81;5020016;28;20185;-78
2023/02/01 08:26:25;;;;;;;22.30;4.53;;;;;;;3.92;100.00;100317.53;5038263;28;20585;-78
2023/02/01 08:28:57;;;;;;;7.57;3.60;;;;;;;3.89;100.00;100315.22;5037298;28;20296;-78
2023/02/01 08:31:31;;;;;;;13.68;7.03;;;;;;;3.87;100.00;100317.22;5019126;28;20283;-79
2023/02/01 08:34:04;;;;;;;10.23;5.78;;;;;;;3.87;100.00;100319.91;5037310;28;20237;-78
2023/02/01 08:36:34;;;;;;;12.57;4.90;;;;;;;3.87;100.00;100314.53;5037078;28;20205;-78
2023/02/01 08:39:08;;;;;;;11.95;4.43;;;;;;;3.92;100.00;100322.88;5018236;28;20227;-77
2023/02/01 08:41:41;;;;;;;9.82;3.80;;;;;;;3.97;100.00;100326.91;5018638;28;20193;-78
2023/02/01 08:44:12;;;;;;;4.80;3.20;;;;;;;3.87;100.00;100322.56;5035644;28;20269;-78
2023/02/01 08:46:41;;;;;;;10.50;3.92;;;;;;;3.91;100.00;100326.59;5017774;28;20227;-78
2023/02/01 08:49:12;;;;;;;7.75;3.95;;;;;;;3.92;100.00;100330.91;5017827;28;20213;-79
2023/02/01 08:51:45;;;;;;;7.85;3.65;;;;;;;3.80;100.00;100328.81;5036157;28;20205;-79
2023/02/01 08:54:17;;;;;;;10.15;3.63;;;;;;;3.74;100.00;100322.28;5018068;28;20294;-77
2023/02/01 08:56:54;;;;;;;10.23;4.15;;;;;;;3.81;100.00;100328.63;5022892;28;20185;-80
2023/02/01 08:59:24;;;;;;;6.30;3.55;;;;;;;3.85;100.00;100337.16;5054505;28;20170;-78
2023/02/01 09:01:57;;;;;;;5.72;3.42;;;;;;;3.91;100.00;100339.97;5054288;28;20795;-78
2023/02/01 09:04:26;;;;;;;10.60;3.15;;;;;;;3.85;100.00;100332.63;5054541;28;20235;-79
2023/02/01 09:06:56;;;;;;;7.53;2.78;;;;;;;3.93;100.00;100343.31;5039812;28;20193;-77
2023/02/01 09:09:29;;;;;;;11.38;3.40;;;;;;;4.00;100.00;100339.94;5019219;28;20210;-78
2023/02/01 09:12:00;;;;;;;8.80;3.28;;;;;;;4.03;100.00;100340.44;5020948;28;20197;-78
2023/02/01 09:14:36;;;;;;;4.80;2.85;;;;;;;4.08;100.00;100343.41;5035240;28;20267;-78
2023/02/01 09:17:08;;;;;;;5.45;2.60;;;;;;;4.31;100.00;100346.16;5017909;28;20547;-77
2023/02/01 09:19:38;;;;;;;4.82;3.03;;;;;;;4.32;100.00;100350.50;5036310;28;20209;-80
2023/02/01 09:22:13;;;;;;;6.82;2.97;;;;;;;4.47;100.00;100348.75;5036551;28;20173;-78
2023/02/01 09:24:43;;;;;;;4.22;2.42;;;;;;;4.48;100.00;100350.44;5035658;28;20252;-77
2023/02/01 09:27:14;;;;;;;2.80;2.60;;;;;;;4.45;100.00;100358.00;5035365;28;20535;-79
2023/02/01 09:29:44;;;;;;;8.25;3.20;;;;;;;4.41;100.00;100360.16;5018660;28;20677;-78
2023/02/01 09:32:13;;;;;;;5.22;2.10;;;;;;;4.24;100.00;100363.94;4996755;28;20202;-77
2023/02/01 09:34:52;;;;;;;4.05;1.90;;;;;;;4.30;100.00;100363.25;4998628;28;20217;-79
2023/02/01 09:37:24;;;;;;;8.57;2.38;;;;;;;4.36;100.00;100367.88;5015359;28;20661;-77
2023/02/01 09:39:56;;;;;;;3.28;2.00;;;;;;;4.46;100.00;100373.88;4999455;28;20190;-77
2023/02/01 09:43:01;;;;;;;3.15;1.90;;;;;;;4.42;99.58;100372.56;5017136;28;20266;-78
2023/02/01 09:45:45;;;;;;;5.03;1.42;;;;;;;4.51;99.59;100379.53;5015464;28;20691;-78
2023/02/01 09:48:25;;;;;;;6.93;1.38;;;;;;;4.39;99.76;100378.28;5015251;28;20189;-78
2023/02/01 09:50:58;;;;;;;4.25;1.38;;;;;;;4.38;99.55;100390.00;5018510;28;20281;-78
2023/02/01 09:53:36;;;;;;;1.75;1.25;;;;;;;4.33;98.38;100390.53;5020069;28;20204;-78
2023/02/01 09:56:22;;;;;;;5.25;1.67;;;;;;;4.48;98.29;100387.09;5006854;28;20221;-78
2023/02/01 09:59:12;;;;;;;2.35;1.35;;;;;;;4.59;98.04;100387.56;5023944;28;20642;-76
2023/02/01 10:01:46;;;;;;;3.55;1.23;;;;;;;4.65;98.30;100399.38;5006947;28;20194;-78
2023/02/01 10:04:18;;;;;;;4.47;2.03;;;;;;;4.56;97.58;100395.94;5016378;28;20256;-79
2023/02/01 10:07:07;;;;;;;2.25;1.23;;;;;;;4.47;98.40;100396.97;5036981;28;20181;-79
2023/02/01 10:10:07;;;;;;;8.55;1.85;;;;;;;4.14;99.29;100406.16;5011808;28;20213;-78
2023/02/01 10:13:15;;;;;;;3.28;1.48;;;;;;;4.06;100.00;100387.44;4977679;28;20204;-77
2023/02/01 10:16:00;;;;;;;5.68;1.02;;;;;;;4.03;100.00;100393.13;5029282;28;20273;-78
2023/02/01 10:18:52;;;;;;;4.68;1.70;;;;;;;4.10;100.00;100410.19;5040254;28;20208;-77
2023/02/01 10:21:41;;;;;;;5.90;1.73;;;;;;;4.15;100.00;100402.47;5030519;28;20549;-77
2023/02/01 10:24:39;;;;;;;7.18;2.28;;;;;;;4.29;100.00;100404.44;5046426;28;20193;-78
2023/02/01 10:27:24;;;;;;;6.72;2.10;;;;;;;4.41;100.00;100396.84;5046411;28;20181;-78
2023/02/01 10:29:59;;;;;;;6.63;1.55;;;;;;;4.39;100.00;100399.72;5024785;28;20692;-79
2023/02/01 10:32:34;;;;;;;5.60;2.08;;;;;;;4.46;100.00;100406.03;5043142;28;20295;-78
2023/02/01 10:35:16;;;;;;;5.82;1.50;;;;;;;4.66;100.00;100404.59;5020415;28;20213;-77
2023/02/01 10:37:46;;;;;;;3.05;1.80;;;;;;;4.84;100.00;100395.44;5019726;28;20244;-79
2023/02/01 10:40:21;;;;;;;2.75;1.55;;;;;;;4.77;98.71;100396.16;5019650;28;20202;-77
2023/02/01 10:42:55;;;;;;;3.25;1.55;;;;;;;4.96;99.86;100402.06;5020890;28;20257;-78
2023/02/01 10:45:28;;;;;;;3.80;1.60;;;;;;;4.81;98.53;100408.19;5000245;28;20674;-78
2023/02/01 10:51:23;;;;;;;6.30;1.95;;;;;;;4.64;100.00;100405.78;4999853;28;20253;-78
2023/02/01 10:54:01;;;;;;;9.23;1.90;;;;;;;4.56;100.00;100401.28;5011005;28;20194;-77
2023/02/01 10:56:32;;;;;;;5.53;1.88;;;;;;;4.40;99.09;100401.38;5051105;28;20256;-79
2023/02/01 10:59:04;;;;;;;4.10;1.80;;;;;;;4.40;100.00;100401.38;5041479;28;20196;-78
2023/02/01 11:01:44;;;;;;;3.65;1.60;;;;;;;4.48;100.00;100397.81;5021843;28;20228;-78
2023/02/01 11:04:26;;;;;;;3.92;1.70;;;;;;;4.56;100.00;100395.09;5002872;28;20305;-78
2023/02/01 11:07:08;;;;;;;3.90;1.42;;;;;;;4.69;100.00;100385.50;5020182;28;20182;-79
2023/02/01 11:09:42;;;;;;;4.65;2.10;;;;;;;4.65;100.00;100377.94;5020334;28;20174;-78
2023/02/01 11:12:32;;;;;;;6.15;2.47;;;;;;;4.80;100.00;100377.03;5019605;28;20221;-77
2023/02/01 11:15:15;;;;;;;8.63;2.47;;;;;;;5.01;100.00;100383.59;5021188;28;20221;-78
2023/02/01 11:17:56;;;;;;;4.03;2.28;;;;;;;5.17;100.00;100378.13;5035608;28;20225;-79
2023/02/01 11:29:10;;;;;;;2.85;1.83;;;;;;;5.60;98.18;100365.81;5033960;28;20197;-82
2023/02/01 11:37:40;;;;;;;8.13;2.30;;;;;;;6.07;93.61;100344.84;4974913;28;20230;-81
2023/02/01 11:40:36;;;;;;;10.07;2.50;;;;;;;6.02;92.99;100349.94;5021776;28;20276;-79
2023/02/01 11:43:19;;;;;;;8.60;2.15;;;;;;;5.82;92.91;100346.13;5047622;28;20161;-80
2023/02/01 11:45:59;;;;;;;8.57;2.85;;;;;;;5.96;93.35;100336.41;5031063;28;20214;-79
2023/02/01 11:48:31;;;;;;;10.07;2.55;;;;;;;5.98;92.76;100331.72;5004284;28;20708;-78
2023/02/01 11:51:30;;;;;;;8.52;2.40;;;;;;;5.90;92.52;100326.44;5018827;28;20195;-77
2023/02/01 11:54:16;;;;;;;16.23;3.63;;;;;;;6.02;93.17;100320.41;5020175;28;20240;-78
2023/02/01 11:56:59;;;;;;;10.82;2.28;;;;;;;6.06;90.64;100316.31;4999304;28;20220;-78
2023/02/01 11:59:51;;;;;;;10.40;2.30;;;;;;;6.23;90.75;100322.34;5022679;28;20182;-78
2023/02/01 12:02:53;;;;;;;6.80;2.33;;;;;;;6.39;89.73;100326.66;5017541;28;20171;-77
2023/02/01 12:05:47;;;;;;;6.28;1.98;;;;;;;6.64;88.68;100317.22;5009716;28;20308;-79
2023/02/01 12:08:41;;;;;;;6.53;2.25;;;;;;;6.88;87.00;100302.56;5001593;28;20213;-78
2023/02/01 12:11:31;;;;;;;11.38;1.55;;;;;;;6.88;84.22;100305.25;5023124;28;20204;-78
2023/02/01 12:14:17;;;;;;;4.20;1.60;;;;;;;6.92;82.85;100307.34;5027625;28;20194;-80
2023/02/01 12:17:13;;;;;;;4.78;3.13;;;;;;;6.94;83.60;100304.47;5021600;28;20196;-79
2023/02/01 12:20:06;;;;;;;4.55;1.73;;;;;;;6.69;83.65;100295.97;5047450;28;20190;-78
2023/02/01 12:22:49;;;;;;;5.18;1.23;;;;;;;6.69;83.56;100289.75;5033204;28;20189;-76
2023/02/01 12:25:41;;;;;;;6.60;2.05;;;;;;;6.70;82.77;100275.28;5050849;28;20232;-77
2023/02/01 12:28:46;;;;;;;6.80;2.42;;;;;;;6.50;83.08;100292.03;5034176;28;20175;-77
2023/02/01 12:31:40;;;;;;;9.20;2.75;;;;;;;6.47;83.57;100281.69;5029674;28;20225;-77
2023/02/01 12:34:36;;;;;;;4.35;1.42;;;;;;;6.32;84.25;100280.06;5018468;28;20178;-78
2023/02/01 12:37:19;;;;;;;5.40;2.15;;;;;;;6.22;84.06;100276.84;5017330;28;20268;-76
2023/02/01 12:40:03;;;;;;;8.80;2.40;;;;;;;6.06;85.58;100267.13;5017448;28;20322;-79
2023/02/01 12:42:37;;;;;;;5.25;2.40;;;;;;;6.10;86.69;100263.06;5017547;28;20217;-78
2023/02/01 12:45:23;;;;;;;6.13;2.75;;;;;;;6.16;84.49;100239.97;5002931;28;20298;-77
2023/02/01 12:48:12;;;;;;;12.10;2.30;;;;;;;6.19;84.57;100245.81;5029671;28;20182;-79
2023/02/01 12:51:06;;;;;;;4.95;1.63;;;;;;;6.16;84.07;100238.13;5029839;28;20205;-79
2023/02/01 12:53:51;;;;;;;6.32;2.15;;;;;;;6.28;84.58;100217.81;5026249;28;20217;-77
2023/02/01 12:56:36;;;;;;;4.38;1.92;;;;;;;6.34;83.32;100232.34;5030234;28;20208;-78
2023/02/01 12:59:31;;;;;;;21.48;3.28;;;;;;;6.36;84.03;100219.53;5005370;28;20202;-78
2023/02/01 13:02:40;;;;;;;7.10;2.03;;;;;;;6.38;82.05;100212.97;5018532;28;20163;-79
2023/02/01 13:05:51;;;;;;;7.47;2.13;;;;;;;6.45;81.37;100216.53;4999605;28;20221;-79
2023/02/01 13:09:07;;;;;;;9.93;2.80;;;;;;;6.58;81.72;100217.69;4985374;28;20261;-79
2023/02/01 13:12:07;;;;;;;5.50;1.95;;;;;;;6.45;79.44;100262.22;5000169;28;20213;-79
2023/02/01 13:14:49;;;;;;;11.55;2.13;;;;;;;6.43;80.97;100279.56;5019168;28;20208;-78
2023/02/01 13:17:32;;;;;;;3.33;1.65;;;;;;;6.30;81.53;100284.78;5019915;28;20170;-77
2023/02/01 13:20:15;;;;;;;5.05;2.55;;;;;;;5.77;83.70;100280.56;5002414;28;20182;-79
2023/02/01 13:23:06;;;;;;;2.95;1.85;;;;;;;5.23;86.25;100275.44;5019277;28;20649;-79
2023/02/01 13:26:02;;;;;;;5.05;1.80;;;;;;;5.44;87.04;100272.88;5019620;28;20300;-79
2023/02/01 13:28:42;;;;;;;4.45;1.38;;;;;;;5.62;86.17;100275.19;5018294;28;20185;-78
2023/02/01 13:31:41;;;;;;;8.73;2.08;;;;;;;5.92;86.67;100263.47;5002100;28;20205;-80
2023/02/01 13:35:03;;;;;;;11.68;2.58;;;;;;;6.30;82.84;100258.75;5019799;28;20174;-80
2023/02/01 13:38:07;;;;;;;14.52;2.45;;;;;;;6.52;81.94;100238.09;4976128;28;20212;-78
2023/02/01 13:40:42;;;;;;;8.43;2.05;;;;;;;6.64;80.16;100239.25;5038446;28;20205;-78
2023/02/01 13:43:19;;;;;;;6.32;1.85;;;;;;;6.62;80.96;100229.72;5024489;28;20208;-78
2023/02/01 13:45:53;;;;;;;6.35;1.88;;;;;;;6.69;81.32;100225.22;5055635;28;20308;-79
2023/02/01 13:48:30;;;;;;;9.52;1.70;;;;;;;6.71;79.31;100220.50;5043645;28;20563;-79
2023/02/01 13:51:01;;;;;;;15.73;2.95;;;;;;;6.80;79.82;100216.63;5026815;28;20220;-78
2023/02/01 13:53:36;;;;;;;8.23;1.70;;;;;;;6.77;79.65;100211.66;5051486;28;20212;-78
2023/02/01 13:56:11;;;;;;;14.77;2.90;;;;;;;6.86;79.53;100207.81;5060203;28;20247;-79
2023/02/01 13:58:50;;;;;;;13.98;2.75;;;;;;;6.82;79.68;100201.16;5043336;28;20171;-80
2023/02/01 14:01:37;;;;;;;9.82;3.35;;;;;;;6.75;78.94;100201.09;5060701;28;20157;-78
2023/02/01 14:04:28;;;;;;;7.70;2.53;;;;;;;6.70;79.04;100200.00;5043667;28;20189;-79
2023/02/01 14:07:02;;;;;;;6.75;2.22;;;;;;;6.68;79.20;100196.69;5059946;28;20174;-79
2023/02/01 14:09:42;;;;;;;10.63;2.45;;;;;;;6.69;79.48;100187.59;5050699;28;20565;-79
2023/02/01 14:12:51;;;;;;;12.60;3.50;;;;;;;6.54;80.22;100201.94;5054268;28;20197;-79
2023/02/01 14:15:38;;;;;;;8.80;2.60;;;;;;;6.27;84.68;100199.19;5037945;28;20237;-78
2023/02/01 14:18:44;;;;;;;4.55;2.28;;;;;;;5.97;87.84;100176.97;5002391;28;20190;-79
2023/02/01 14:21:26;;;;;;;8.63;1.90;;;;;;;5.77;88.93;100189.28;5046322;28;20197;-80
2023/02/01 14:24:18;;;;;;;5.95;2.72;;;;;;;5.64;89.21;100188.13;5017293;28;20187;-79
2023/02/01 14:26:56;;;;;;;8.82;1.98;;;;;;;5.61;89.06;100176.94;5010777;28;20181;-78
2023/02/01 14:29:34;;;;;;;9.93;2.13;;;;;;;5.57;90.54;100168.41;5037795;28;20215;-79
2023/02/01 14:32:19;;;;;;;7.47;3.20;;;;;;;5.72;92.31;100162.16;5058366;28;20264;-79
2023/02/01 14:34:54;;;;;;;5.47;2.95;;;;;;;5.80;92.12;100160.22;5043687;28;20299;-80
2023/02/01 14:37:29;;;;;;;8.68;2.97;;;;;;;5.75;93.26;100159.13;5025295;28;20451;-79
2023/02/01 14:40:02;;;;;;;16.80;3.40;;;;;;;5.77;92.78;100144.47;5041637;28;20233;-79
2023/02/01 14:42:39;;;;;;;12.40;3.45;;;;;;;5.85;91.56;100147.06;5020772;28;20190;-79
2023/02/01 14:45:50;;;;;;;9.02;2.85;;;;;;;5.83;91.70;100137.53;5025930;28;20201;-79
2023/02/01 14:48:46;;;;;;;9.60;2.97;;;;;;;5.94;91.39;100129.00;5005369;28;20637;-80
2023/02/01 14:51:21;;;;;;;10.15;2.70;;;;;;;5.97;91.32;100139.34;5017353;28;20232;-80
2023/02/01 14:53:59;;;;;;;15.35;4.85;;;;;;;6.03;91.82;100134.06;5003765;28;20224;-79
2023/02/01 14:56:29;;;;;;;20.65;5.95;;;;;;;6.00;90.67;100123.69;5021648;28;20201;-78
2023/02/01 14:59:09;;;;;;;10.73;4.82;;;;;;;5.98;90.05;100116.88;5022265;28;20178;-80
2023/02/01 15:01:47;;;;;;;10.57;3.35;;;;;;;6.03;90.06;100117.94;5021794;28;20166;-80
2023/02/01 15:04:21;;;;;;;8.43;3.67;;;;;;;5.98;87.98;100108.81;5023113;28;20185;-79
2023/02/01 15:06:56;;;;;;;8.50;3.03;;;;;;;5.94;87.65;100112.91;5004384;28;20305;-78
2023/02/01 15:09:30;;;;;;;8.63;2.88;;;;;;;5.97;89.00;100115.19;5021108;28;20181;-79
2023/02/01 15:12:03;;;;;;;7.50;2.65;;;;;;;5.91;88.60;100113.25;5004401;28;20214;-79
2023/02/01 15:14:37;;;;;;;13.95;4.95;;;;;;;5.82;89.88;100117.06;5021874;28;20292;-79
2023/02/01 15:17:21;;;;;;;6.53;2.50;;;;;;;5.62;89.24;100120.34;5004365;28;20194;-78
2023/02/01 15:19:57;;;;;;;2.67;1.42;;;;;;;5.38;90.37;100111.78;5022042;28;20174;-78
2023/02/01 15:22:33;;;;;;;9.65;1.60;;;;;;;5.17;91.17;100126.00;5021690;28;20273;-78
2023/02/01 15:25:06;;;;;;;4.60;1.88;;;;;;;4.99;91.45;100125.50;5021345;28;20233;-80
2023/02/01 15:27:35;;;;;;;4.57;1.77;;;;;;;4.90;92.98;100138.19;5004522;28;20186;-78
2023/02/01 15:30:19;;;;;;;3.45;2.33;;;;;;;4.77;93.52;100135.31;5023766;28;20204;-80
2023/02/01 15:32:50;;;;;;;7.50;2.35;;;;;;;4.78;94.54;100137.81;5040776;28;20194;-79
2023/02/01 15:35:48;;;;;;;3.33;1.63;;;;;;;4.72;95.77;100143.91;5023477;28;20224;-78
2023/02/01 15:38:37;;;;;;;2.88;1.60;;;;;;;4.69;96.49;100144.28;4998026;28;20209;-79
2023/02/01 15:41:14;;;;;;;3.92;1.13;;;;;;;4.52;96.92;100139.22;5041367;28;20172;-80
2023/02/01 15:44:05;;;;;;;3.40;1.00;;;;;;;4.35;97.01;100135.88;5022632;28;20651;-79
2023/02/01 15:46:43;;;;;;;3.83;1.17;;;;;;;4.29;98.22;100150.81;5040786;28;20256;-79
2023/02/01 15:49:21;;;;;;;2.53;1.30;;;;;;;4.11;98.25;100155.66;5027674;28;20208;-77
2023/02/01 15:51:52;;;;;;;3.47;1.17;;;;;;;4.05;100.00;100160.88;5046523;28;20181;-78
2023/02/01 15:54:26;;;;;;;1.67;0.98;;;;;;;3.85;100.00;100176.56;5047162;28;20276;-77
2023/02/01 15:56:58;;;;;;;4.20;1.15;;;;;;;3.66;100.00;100188.53;5029795;28;20243;-77
2023/02/01 15:59:41;;;;;;;2.85;1.42;;;;;;;3.52;100.00;100191.94;5025500;28;20689;-78
2023/02/01 16:02:37;;;;;;;2.05;1.15;;;;;;;3.11;100.00;100182.38;5042403;28;20162;-77
2023/02/01 16:05:28;;;;;;;4.82;1.45;;;;;;;2.89;100.00;100190.13;5041315;28;20206;-76
2023/02/01 16:08:05;;;;;;;2.28;1.40;;;;;;;2.85;100.00;100182.63;5041026;28;20224;-78
2023/02/01 16:10:42;;;;;;;1.55;0.80;;;;;;;2.70;100.00;100179.81;5025064;28;20193;-79
2023/02/01 16:13:13;;;;;;;1.55;0.90;;;;;;;2.59;100.00;100189.00;5046263;28;20200;-78
2023/02/01 16:15:47;;;;;;;1.10;0.80;;;;;;;2.54;100.00;100190.50;5036134;28;20221;-81
2023/02/01 16:18:25;;;;;;;5.20;1.65;;;;;;;2.55;100.00;100184.16;5009806;28;20608;-79
2023/02/01 16:20:55;;;;;;;2.47;1.08;;;;;;;2.53;100.00;100172.81;5004641;28;20274;-78
2023/02/01 16:23:25;;;;;;;1.45;1.00;;;;;;;2.62;100.00;100177.97;5023120;28;20205;-80
2023/02/01 16:25:58;;;;;;;1.42;1.00;;;;;;;2.57;100.00;100174.13;5026387;28;20281;-78
2023/02/01 16:28:28;;;;;;;2.83;0.88;;;;;;;2.50;100.00;100183.84;5046335;28;20196;-78
2023/02/01 16:31:01;;;;;;;2.10;0.88;;;;;;;2.47;100.00;100184.19;5012595;28;20236;-78
2023/02/01 16:33:33;;;;;;;3.55;1.00;;;;;;;2.52;100.00;100176.47;5024685;28;20210;-78
2023/02/01 16:36:05;;;;;;;1.17;0.80;;;;;;;2.53;100.00;100187.00;5007115;28;20218;-77
2023/02/01 16:38:40;;;;;;;1.10;0.70;;;;;;;2.55;100.00;100194.84;5025072;28;20196;-78
2023/02/01 16:41:21;;;;;;;1.65;1.10;;;;;;;2.50;100.00;100205.19;5021242;28;20177;-80
2023/02/01 16:43:53;;;;;;;3.75;1.48;;;;;;;2.46;100.00;100203.88;5037261;28;20178;-79
2023/02/01 16:46:31;;;;;;;0.80;0.60;;;;;;;2.49;100.00;100216.88;5025994;28;20181;-79